< < Back
Terminal Aerodrome Forecast


Current Version              Previous Versions:   1  2  3  4  5  6  7  8  9  

Terminal Aerodrome Forecast

806
FTUS42 KGSP 300532
TAFHKY
TAF
KHKY 300532Z 3006/3106 00000KT P6SM SCT100 BKN120
      TEMPO 3008/3012 4SM BR SCT120
     FM301200 VRB03KT P6SM SCT120
     FM301500 26004KT P6SM SCT060
     FM301900 24005KT P6SM BKN060 PROB30 3020/3102 4SM -TSRA
      OVC040CB
     FM310500 VRB02KT P6SM SCT070=

Latest METAR

651
SAUS70 KWBC 301300 RRK
MTRHKY
METAR KHKY 301253Z 32003KT 4SM BR BKN002 22/22 A3003 RMK AO2 SLP148
T02220222


USA.gov is the U.S. government's official web portal to all federal, state and local government web resources and services.